Weather reports worldwide

Advertisment
Calamocha, Spain (8233): temperature & dewpoint: 14.01.2021 15:00:00 - 20.01.2021 15:00:00 (CET)Calamocha, Spain (8233): wind speed: 14.01.2021 15:00:00 - 20.01.2021 15:00:00 (CET)Calamocha, Spain (8233): wind direction: 14.01.2021 15:00:00 - 20.01.2021 15:00:00 (CET)Calamocha, Spain (8233): visibility: 14.01.2021 15:00:00 - 20.01.2021 15:00:00 (CET)Calamocha, Spain (8233): precipitation: 14.01.2021 15:00:00 - 20.01.2021 15:00:00 (CET)
Date & Time tt [°C] td [°C] ff [km/h] ff [kn] dd vv [km] rr [mm]
20.01.2021 15:00:00 - - - - - - -
20.01.2021 14:00:00 6,8 1,7 26 14 SSW 20 0,0
20.01.2021 13:00:00 6,3 1,2 16 9 SW 20 -
20.01.2021 12:00:00 5,5 1,0 11 6 SSW 20 0,0
20.01.2021 11:00:00 3,6 0,1 4 2 SW 20 0,0
20.01.2021 10:00:00 1,3 -0,6 5 3 S 20 -
20.01.2021 09:00:00 -2,1 -3,7 4 2 SSE 20 0,0
20.01.2021 08:00:00 -1,8 -3,2 5 3 S 20 0,0
20.01.2021 07:00:00 -4,2 -5,6 4 2 N 20 -
20.01.2021 06:00:00 -4,2 -5,6 4 2 SE 20 0,0
20.01.2021 05:00:00 -5,3 -6,7 2 1 NE 20 0,0
20.01.2021 04:00:00 -4,8 -6,0 8 4 SE 20 -
20.01.2021 03:00:00 -4,5 -6,5 4 2 SE 20 0,0
20.01.2021 02:00:00 -4,9 -6,4 8 4 SSE 20 0,0
20.01.2021 01:00:00 -5,1 -6,8 9 5 SSE 20 -
20.01.2021 00:00:00 -6,7 -7,6 4 2 S 18 0,0
19.01.2021 23:00:00 -7,7 -8,8 2 1 WSW 12 0,0
19.01.2021 22:00:00 -6,7 -8,4 2 1 NNW 16 -
19.01.2021 21:00:00 -5,0 -6,7 5 3 S 20 0,0
19.01.2021 20:00:00 -4,3 -6,6 4 2 S 20 0,0
19.01.2021 19:00:00 -3,2 -5,7 2 1 SE 15 -
19.01.2021 18:00:00 1,1 -3,0 2 1 NW 18 0,0
19.01.2021 17:00:00 3,7 -1,7 4 2 S 20 0,0
19.01.2021 16:00:00 2,8 -1,8 13 7 SSE 20 -
19.01.2021 15:00:00 1,3 -2,3 13 7 SE 20 0,0
19.01.2021 14:00:00 -0,7 -4,2 13 7 SE 18 0,0
19.01.2021 13:00:00 -2,0 -5,5 9 5 SE 19 -
19.01.2021 12:00:00 -4,0 -6,9 13 7 SSE 19 0,0
19.01.2021 11:00:00 -5,3 -6,7 8 4 SSE 19 0,0
19.01.2021 10:00:00 -9,0 -9,5 2 1 S 16 -
19.01.2021 09:00:00 -11,2 -11,8 4 2 S 19 0,0
19.01.2021 08:00:00 -12,3 -13,6 2 1 W 14 0,0
19.01.2021 07:00:00 -11,6 -12,6 4 2 S 6 -
19.01.2021 06:00:00 -11,1 -12,0 5 3 SSE 0,8 0,0
19.01.2021 05:00:00 -10,4 -11,3 0 0 N 6 0,0
19.01.2021 04:00:00 -10,1 -10,7 5 3 SSE 0,5 -
19.01.2021 03:00:00 -9,3 -9,8 5 3 S 0,4 0,0
19.01.2021 02:00:00 -9,4 -10,5 2 1 ESE - 0,0
19.01.2021 01:00:00 -8,2 -8,7 5 3 S 0,8 -
19.01.2021 00:00:00 -7,9 -8,6 4 2 S 0,9 0,0
18.01.2021 23:00:00 -7,7 -8,5 5 3 SSE 0,3 0,0
18.01.2021 22:00:00 -7,0 -8,1 2 1 NE 2,9 -
18.01.2021 21:00:00 -5,7 -7,1 2 1 SSE 13 0,0
18.01.2021 20:00:00 -4,5 -6,2 2 1 WSW 19 0,0
18.01.2021 19:00:00 -1,3 -3,5 0 0 N 10 -
18.01.2021 18:00:00 2,2 -1,6 5 3 S 17 0,0
18.01.2021 17:00:00 4,2 0,0 8 4 SSE 20 0,0
18.01.2021 16:00:00 3,9 -0,1 8 4 SE 20 -
18.01.2021 15:00:00 3,4 -0,8 9 5 SSE 20 0,0
18.01.2021 14:00:00 - - - - - - -
18.01.2021 13:00:00 - - - - - - -
18.01.2021 12:00:00 - - - - - - -
18.01.2021 11:00:00 - - - - - - -
18.01.2021 10:00:00 - - - - - - -
18.01.2021 09:00:00 -9,4 -10,5 4 2 ESE 11 0,0
18.01.2021 08:00:00 -8,9 -10,2 4 2 SSE 15 0,0
18.01.2021 07:00:00 -7,9 -9,4 4 2 ENE 18 -
18.01.2021 06:00:00 -6,1 -7,8 5 3 S 20 0,0
18.01.2021 05:00:00 -5,3 -7,1 5 3 SSE 20 0,0
18.01.2021 04:00:00 -3,8 -5,1 4 2 S 20 -
18.01.2021 03:00:00 -3,6 -5,5 2 1 W 20 0,0
18.01.2021 02:00:00 -2,7 -4,4 11 6 SE 20 0,0
18.01.2021 01:00:00 -3,7 -5,4 2 1 E 20 -
18.01.2021 00:00:00 -2,2 -3,9 4 2 S 18 0,0
17.01.2021 23:00:00 -1,9 -3,6 4 2 SW 19 0,0
17.01.2021 22:00:00 -1,9 -3,9 4 2 NE 19 -
17.01.2021 21:00:00 -0,6 -3,1 4 2 N 20 0,0
17.01.2021 20:00:00 -0,5 -3,5 2 1 W 20 0,0
17.01.2021 19:00:00 0,1 -3,8 2 1 WSW 19 -
17.01.2021 18:00:00 1,0 -4,4 2 1 S 20 0,0
17.01.2021 17:00:00 4,2 -3,8 4 2 S 20 0,0
17.01.2021 16:00:00 3,8 -3,5 2 1 ESE 20 -
17.01.2021 15:00:00 2,8 -3,8 5 3 SSE 20 0,0
17.01.2021 14:00:00 1,6 -4,3 11 6 SSE 20 0,0
17.01.2021 13:00:00 0,6 -5,2 5 3 S 19 -
17.01.2021 12:00:00 -3,7 -8,4 2 1 NNW 20 0,0
17.01.2021 11:00:00 -5,7 -10,1 5 3 SSW 20 0,0
17.01.2021 10:00:00 -9,7 -12,0 5 3 SSE 20 -
17.01.2021 09:00:00 -12,4 -14,1 2 1 E 20 0,0
17.01.2021 08:00:00 -12,9 -14,6 2 1 S 20 0,0
17.01.2021 07:00:00 -12,5 -14,1 4 2 ESE 20 -
17.01.2021 06:00:00 -12,0 -13,4 4 2 S 20 0,0
17.01.2021 05:00:00 -11,7 -13,6 2 1 SSE 20 0,0
17.01.2021 04:00:00 -11,0 -13,0 2 1 NNE 20 -
17.01.2021 03:00:00 -10,7 -12,4 4 2 S 20 0,0
17.01.2021 02:00:00 -10,2 -12,0 2 1 SE 20 0,0
17.01.2021 01:00:00 -9,6 -11,2 4 2 SE 20 -
17.01.2021 00:00:00 -8,7 -10,0 2 1 WNW 19 0,0
16.01.2021 23:00:00 -8,0 -10,1 4 2 S 20 0,0
16.01.2021 22:00:00 -7,1 -9,7 2 1 E 20 -
16.01.2021 21:00:00 -4,9 -7,8 5 3 S 19 0,0
16.01.2021 20:00:00 -4,1 -7,2 5 3 S 20 0,0
16.01.2021 19:00:00 -2,7 -5,7 2 1 NW 20 -
16.01.2021 18:00:00 0,1 -4,0 2 1 NNW 20 0,0
16.01.2021 17:00:00 2,3 -3,2 5 3 SSE 20 0,0
16.01.2021 16:00:00 3,4 -2,6 5 3 S 20 -
16.01.2021 15:00:00 4,1 -3,4 5 3 WSW 20 0,0
16.01.2021 14:00:00 3,9 -2,7 4 2 SSE 20 0,0
16.01.2021 13:00:00 1,7 -3,6 5 3 S 20 -
16.01.2021 12:00:00 -2,7 -5,3 2 1 ENE 17 0,0
16.01.2021 11:00:00 -5,5 -6,5 2 1 W 18 0,0
16.01.2021 10:00:00 -9,3 -10,2 2 1 NE 13 -
16.01.2021 09:00:00 -12,0 -13,2 2 1 NW 17 0,0
16.01.2021 08:00:00 -11,9 -13,1 2 1 S 18 0,0
16.01.2021 07:00:00 -10,9 -11,5 5 3 ESE 15 -
16.01.2021 06:00:00 -10,6 -11,4 4 2 W 16 0,0
16.01.2021 05:00:00 -10,2 -11,1 4 2 SE 16 0,0
16.01.2021 04:00:00 -10,2 -11,1 4 2 E 16 -
16.01.2021 03:00:00 -9,8 -10,7 4 2 S 18 0,0
16.01.2021 02:00:00 -9,4 -10,1 4 2 SSE 11 0,0
16.01.2021 01:00:00 -9,6 -10,4 8 4 SSE 9 -
16.01.2021 00:00:00 -9,0 -10,1 4 2 SW 18 0,0
15.01.2021 23:00:00 -7,9 -9,0 2 1 NE 11 0,0
15.01.2021 22:00:00 -6,8 -7,9 5 3 SSW 16 -
15.01.2021 21:00:00 -5,4 -6,5 2 1 SW 11 0,0
15.01.2021 20:00:00 -4,5 -5,7 4 2 S 11 0,0
15.01.2021 19:00:00 -2,9 -4,6 5 3 SE 14 -
15.01.2021 18:00:00 0,7 -2,2 2 1 WSW 18 0,0
15.01.2021 17:00:00 2,7 -1,3 4 2 NW 20 0,0
15.01.2021 16:00:00 3,9 -0,3 2 1 S 20 -
15.01.2021 15:00:00 3,3 -0,2 4 2 SSE 19 0,0
15.01.2021 14:00:00 1,0 -0,8 5 3 SW 15 0,0
15.01.2021 13:00:00 -0,9 -1,9 2 1 N 3,4 -
15.01.2021 12:00:00 -1,2 -1,5 4 2 S 0,2 0,0
15.01.2021 11:00:00 -3,7 -4,0 4 2 NE 1,1 0,0
15.01.2021 10:00:00 -5,1 -5,5 2 1 SE 0,5 -
15.01.2021 09:00:00 -6,5 -6,9 2 1 S 0,2 0,0
15.01.2021 08:00:00 -7,7 -8,1 2 1 E 0,1 0,0
15.01.2021 07:00:00 -9,4 -9,9 2 1 NE 0,6 -
15.01.2021 06:00:00 -10,3 -10,8 2 1 E 0,2 0,0
15.01.2021 05:00:00 -11,5 -12,1 4 2 S 0,2 0,0
15.01.2021 04:00:00 -11,2 -12,8 2 1 W 8 -
15.01.2021 03:00:00 -10,3 -11,6 4 2 SSW 9 0,0
15.01.2021 02:00:00 -9,3 -10,6 4 2 NE 7 0,0
15.01.2021 01:00:00 -7,0 -8,7 2 1 SW 11 -
15.01.2021 00:00:00 -4,9 -7,0 2 1 SSE 11 0,0
14.01.2021 23:00:00 -5,1 -6,9 4 2 SSE 12 0,0
14.01.2021 22:00:00 -6,4 -8,2 2 1 ENE 13 -
14.01.2021 21:00:00 -6,5 -9,1 4 2 WNW 13 0,0
14.01.2021 20:00:00 -7,9 -9,5 5 3 SSE 19 0,0
14.01.2021 19:00:00 -7,8 -10,0 2 1 W 16 -
14.01.2021 18:00:00 -6,0 -9,4 4 2 NNE 17 0,0
14.01.2021 17:00:00 -2,5 -7,4 4 2 SE 20 0,0
14.01.2021 16:00:00 -1,6 -6,9 4 2 SSE 20 -
14.01.2021 15:00:00 -3,4 -7,9 8 4 SSE 20 0,0

tt = temperature
td = dewpoint
ff = wind speed
dd = wind direction
vv = visibility
rr = precipitation

Next stations